Time;durP1;ratioP1;P1;durP2;ratioP2;P2;SDS_P1;SDS_P2;PMS_P1;PMS_P2;Temp;Humidity;BMP_temperature;BMP_pressure;BME280_temperature;BME280_humidity;BME280_pressure;Samples;Min_cycle;Max_cycle;Signal;HPM_P1;HPM_P2
2023/12/02 00:01:28;;;;;;;8.82;6.30;;;10.50;99.90;;;;;;5013910;28;20042;-44
2023/12/02 00:03:54;;;;;;;7.65;5.80;;;10.50;99.90;;;;;;5014273;28;20026;-44
2023/12/02 00:06:20;;;;;;;7.65;5.97;;;10.60;99.90;;;;;;5013524;28;20045;-44
2023/12/02 00:08:45;;;;;;;7.20;6.03;;;10.60;99.90;;;;;;5012977;28;20373;-44
2023/12/02 00:11:11;;;;;;;7.55;5.53;;;10.70;99.80;;;;;;5012825;28;20061;-45
2023/12/02 00:13:37;;;;;;;7.97;5.85;;;10.70;99.70;;;;;;5013482;28;20044;-44
2023/12/02 00:16:05;;;;;;;7.55;5.75;;;10.70;99.60;;;;;;5013334;28;20097;-43
2023/12/02 00:18:30;;;;;;;8.10;5.65;;;10.80;99.60;;;;;;5012694;28;20480;-44
2023/12/02 00:20:56;;;;;;;7.45;5.47;;;10.80;99.50;;;;;;5012782;28;20028;-43
2023/12/02 00:23:22;;;;;;;7.63;5.82;;;10.80;99.50;;;;;;5012747;28;20030;-44
2023/12/02 00:25:47;;;;;;;8.95;6.63;;;10.80;99.40;;;;;;5012925;28;20033;-44
2023/12/02 00:28:13;;;;;;;7.75;5.85;;;10.80;99.40;;;;;;5013378;28;20534;-45
2023/12/02 00:30:38;;;;;;;7.50;5.80;;;10.80;99.70;;;;;;5012700;28;20064;-44
2023/12/02 00:33:04;;;;;;;7.35;5.78;;;10.80;99.30;;;;;;5012873;28;20050;-43
2023/12/02 00:35:30;;;;;;;8.88;6.07;;;10.80;99.30;;;;;;5012833;28;20088;-45
2023/12/02 00:37:55;;;;;;;7.22;5.70;;;10.80;99.30;;;;;;5012985;28;20034;-44
2023/12/02 00:40:21;;;;;;;8.23;6.03;;;10.80;99.30;;;;;;5012331;28;20036;-43
2023/12/02 00:42:46;;;;;;;8.60;6.13;;;10.80;99.30;;;;;;5012423;28;20236;-45
2023/12/02 00:45:12;;;;;;;7.88;5.85;;;10.80;99.30;;;;;;5012314;28;20025;-42
2023/12/02 00:47:38;;;;;;;7.88;5.72;;;10.80;99.30;;;;;;5012181;28;20102;-44
2023/12/02 00:50:04;;;;;;;7.43;5.68;;;10.80;99.30;;;;;;5012559;28;20076;-44
2023/12/02 00:52:29;;;;;;;8.45;6.47;;;10.80;99.30;;;;;;5012307;28;20141;-44
2023/12/02 00:54:55;;;;;;;8.50;5.82;;;10.70;99.30;;;;;;5012199;28;20073;-45
2023/12/02 00:57:20;;;;;;;7.88;5.95;;;10.70;99.30;;;;;;5013157;28;20025;-45
2023/12/02 00:59:46;;;;;;;8.10;5.63;;;10.70;99.30;;;;;;5013056;28;20041;-44
2023/12/02 01:02:12;;;;;;;7.18;5.63;;;10.70;99.40;;;;;;5011812;28;20034;-45
2023/12/02 01:04:37;;;;;;;7.97;6.10;;;10.70;99.40;;;;;;5012470;28;20440;-44
2023/12/02 01:07:03;;;;;;;8.43;6.25;;;10.70;99.40;;;;;;5012489;28;20033;-45
2023/12/02 01:09:28;;;;;;;7.82;5.95;;;10.60;99.40;;;;;;5012446;28;20053;-44
2023/12/02 01:11:54;;;;;;;8.43;6.10;;;10.60;99.40;;;;;;5012099;28;20029;-41
2023/12/02 01:14:20;;;;;;;8.00;6.13;;;10.60;99.40;;;;;;5012327;28;20030;-44
2023/12/02 01:16:45;;;;;;;7.82;5.85;;;10.60;99.40;;;;;;5012614;28;20026;-44
2023/12/02 01:19:11;;;;;;;9.52;6.28;;;10.60;99.40;;;;;;5012550;28;20479;-44
2023/12/02 01:21:36;;;;;;;8.65;6.38;;;10.60;99.50;;;;;;5011187;28;20033;-44
2023/12/02 01:24:02;;;;;;;7.68;5.68;;;10.60;99.50;;;;;;5012243;28;20093;-44
2023/12/02 01:26:27;;;;;;;8.95;6.15;;;10.60;99.50;;;;;;5012710;28;20108;-43
2023/12/02 01:28:53;;;;;;;8.18;6.22;;;10.60;99.50;;;;;;5012728;28;20032;-44
2023/12/02 01:31:19;;;;;;;9.30;6.63;;;10.50;99.50;;;;;;5012046;28;20056;-44
2023/12/02 01:33:45;;;;;;;7.38;5.43;;;10.50;99.50;;;;;;5012040;28;20022;-44
2023/12/02 01:36:13;;;;;;;8.43;6.13;;;10.50;99.50;;;;;;5012159;28;20121;-44
2023/12/02 01:38:39;;;;;;;7.30;5.57;;;10.50;99.50;;;;;;5011657;28;20029;-45
2023/12/02 01:41:05;;;;;;;7.75;5.68;;;10.50;99.60;;;;;;5011980;28;20381;-44
2023/12/02 01:43:31;;;;;;;9.02;5.50;;;10.50;99.60;;;;;;5011797;28;20128;-44
2023/12/02 01:45:56;;;;;;;7.18;5.78;;;10.50;99.60;;;;;;5011628;28;20041;-44
2023/12/02 01:48:25;;;;;;;7.60;5.80;;;10.50;99.60;;;;;;5012175;28;20058;-44
2023/12/02 01:50:51;;;;;;;7.93;5.95;;;10.50;99.60;;;;;;5012252;28;20049;-44
2023/12/02 01:53:17;;;;;;;8.07;5.63;;;10.40;99.60;;;;;;5011615;28;20100;-44
2023/12/02 01:55:43;;;;;;;7.72;5.63;;;10.40;99.60;;;;;;5011720;28;20026;-43
2023/12/02 01:58:09;;;;;;;8.27;6.00;;;10.40;99.60;;;;;;5011346;28;20538;-44
2023/12/02 02:00:35;;;;;;;7.20;5.40;;;10.40;99.60;;;;;;5011358;28;20038;-45
2023/12/02 02:03:01;;;;;;;6.25;4.70;;;10.40;99.60;;;;;;5011379;28;20037;-44
2023/12/02 02:05:27;;;;;;;7.35;5.72;;;10.40;99.70;;;;;;5011215;28;20037;-45
2023/12/02 02:07:52;;;;;;;6.45;5.18;;;10.40;99.70;;;;;;5011188;28;20127;-44
2023/12/02 02:10:21;;;;;;;6.82;5.05;;;10.40;99.70;;;;;;5011304;28;20109;-43
2023/12/02 02:12:46;;;;;;;6.70;5.18;;;10.40;99.70;;;;;;5012824;28;20021;-44
2023/12/02 02:15:12;;;;;;;7.95;5.80;;;10.30;99.70;;;;;;5015405;28;20022;-44
2023/12/02 02:17:38;;;;;;;7.38;5.55;;;10.40;99.70;;;;;;5014997;28;20022;-43
2023/12/02 02:20:05;;;;;;;7.28;5.35;;;10.30;99.70;;;;;;5015063;28;20021;-44
2023/12/02 02:22:30;;;;;;;6.65;5.38;;;10.40;99.70;;;;;;5015848;28;20034;-44
2023/12/02 02:24:56;;;;;;;7.00;5.63;;;10.30;99.70;;;;;;5015795;28;20416;-45
2023/12/02 02:27:22;;;;;;;7.15;5.45;;;10.30;99.70;;;;;;5015272;28;20028;-44
2023/12/02 02:29:47;;;;;;;6.63;5.45;;;10.30;99.70;;;;;;5014814;28;20022;-44
2023/12/02 02:32:13;;;;;;;6.85;4.95;;;10.30;99.70;;;;;;5015813;28;20018;-44
2023/12/02 02:34:41;;;;;;;6.93;5.18;;;10.30;99.70;;;;;;5015076;28;20029;-44
2023/12/02 02:37:07;;;;;;;6.07;4.82;;;10.30;99.70;;;;;;5015117;28;20473;-44
2023/12/02 02:39:33;;;;;;;7.22;5.50;;;10.30;99.80;;;;;;5014697;28;20505;-44
2023/12/02 02:42:05;;;;;;;6.47;4.72;;;10.30;99.80;;;;;;5015223;28;20034;-44
2023/12/02 02:44:34;;;;;;;5.45;4.85;;;10.30;99.90;;;;;;5015253;28;20034;-44
2023/12/02 02:46:59;;;;;;;6.70;5.00;;;10.30;99.80;;;;;;5015099;28;20284;-44
2023/12/02 02:49:25;;;;;;;6.63;5.00;;;10.30;99.80;;;;;;5014500;28;20072;-44
2023/12/02 02:51:50;;;;;;;5.85;4.65;;;10.30;99.80;;;;;;5014598;28;20029;-44
2023/12/02 02:54:16;;;;;;;5.25;4.43;;;10.20;99.80;;;;;;5015159;28;20026;-45
2023/12/02 02:56:43;;;;;;;5.68;4.63;;;10.30;99.80;;;;;;5014364;28;20026;-44
2023/12/02 02:59:09;;;;;;;5.65;4.53;;;10.20;99.80;;;;;;5014914;28;20411;-44
2023/12/02 03:01:36;;;;;;;5.43;4.57;;;10.20;99.80;;;;;;5014423;28;20100;-43
2023/12/02 03:04:03;;;;;;;6.57;4.93;;;10.20;99.80;;;;;;5014138;28;20435;-43
2023/12/02 03:06:29;;;;;;;4.60;4.00;;;10.20;99.80;;;;;;5014218;28;20578;-44
2023/12/02 03:08:54;;;;;;;5.70;4.38;;;10.20;99.80;;;;;;5014469;28;20120;-44
2023/12/02 03:11:20;;;;;;;5.75;4.28;;;10.20;99.80;;;;;;5014807;28;20093;-44
2023/12/02 03:13:45;;;;;;;7.25;5.18;;;10.20;99.90;;;;;;5014163;28;20428;-44
2023/12/02 03:16:11;;;;;;;5.80;4.35;;;10.20;99.80;;;;;;5014066;28;20034;-45
2023/12/02 03:18:36;;;;;;;6.63;4.65;;;10.20;99.80;;;;;;5013812;28;20057;-45
2023/12/02 03:21:02;;;;;;;5.93;4.60;;;10.20;99.90;;;;;;5013930;28;20022;-44
2023/12/02 03:23:28;;;;;;;5.20;4.70;;;10.20;99.90;;;;;;5013930;28;20041;-44
2023/12/02 03:25:53;;;;;;;5.97;4.55;;;10.10;99.80;;;;;;5012830;28;20022;-44
2023/12/02 03:28:21;;;;;;;5.35;4.00;;;10.10;99.90;;;;;;5014219;28;20468;-44
2023/12/02 03:30:47;;;;;;;5.45;4.07;;;10.10;99.90;;;;;;5013787;28;20046;-44
2023/12/02 03:33:12;;;;;;;4.60;3.58;;;10.20;99.90;;;;;;5013703;28;20507;-45
2023/12/02 03:35:38;;;;;;;4.75;3.92;;;10.20;99.90;;;;;;5013691;28;20058;-44
2023/12/02 03:38:04;;;;;;;5.50;4.03;;;10.10;99.90;;;;;;5013555;28;20030;-42
2023/12/02 03:40:29;;;;;;;5.10;4.13;;;10.10;99.90;;;;;;5014199;28;20040;-45
2023/12/02 03:42:55;;;;;;;5.90;4.22;;;10.10;99.90;;;;;;5013913;28;20522;-44
2023/12/02 03:45:21;;;;;;;5.00;3.95;;;10.10;99.90;;;;;;5013456;28;20029;-44
2023/12/02 03:47:47;;;;;;;4.60;3.95;;;10.10;99.90;;;;;;5013434;28;20041;-44
2023/12/02 03:50:13;;;;;;;5.53;4.00;;;10.10;99.90;;;;;;5013538;28;20025;-43
2023/12/02 03:52:39;;;;;;;4.97;4.15;;;10.10;99.90;;;;;;5013619;28;20041;-45
2023/12/02 03:55:05;;;;;;;6.07;4.35;;;10.10;99.90;;;;;;5013898;28;20034;-44
2023/12/02 03:57:31;;;;;;;5.97;3.72;;;10.10;99.90;;;;;;5013102;28;20030;-42
2023/12/02 03:59:57;;;;;;;5.28;3.80;;;10.10;99.90;;;;;;5013234;28;20373;-45
2023/12/02 04:02:23;;;;;;;5.50;4.20;;;10.10;99.90;;;;;;5013280;28;20061;-45
2023/12/02 04:04:48;;;;;;;6.72;4.72;;;10.10;99.90;;;;;;5013139;28;20017;-45
2023/12/02 04:07:14;;;;;;;5.68;4.47;;;10.10;99.90;;;;;;5013211;28;20022;-45
2023/12/02 04:09:40;;;;;;;6.45;4.20;;;10.00;99.90;;;;;;5013553;28;20022;-44
2023/12/02 04:12:05;;;;;;;4.32;3.78;;;10.10;99.90;;;;;;5013055;28;20435;-44
2023/12/02 04:14:31;;;;;;;5.75;4.30;;;10.00;99.90;;;;;;5013458;28;20022;-44
2023/12/02 04:16:57;;;;;;;4.53;3.72;;;10.10;99.90;;;;;;5012860;28;20423;-44
2023/12/02 04:19:22;;;;;;;4.95;3.72;;;10.10;99.90;;;;;;5013412;28;20069;-44
2023/12/02 04:21:48;;;;;;;4.90;3.80;;;10.10;99.90;;;;;;5012976;28;20034;-44
2023/12/02 04:24:14;;;;;;;4.35;3.50;;;10.00;99.90;;;;;;5012741;28;20041;-43
2023/12/02 04:26:41;;;;;;;4.68;3.67;;;10.00;99.90;;;;;;5012703;28;20384;-44
2023/12/02 04:29:06;;;;;;;4.55;3.55;;;10.10;99.90;;;;;;5012536;28;20430;-44
2023/12/02 04:31:32;;;;;;;4.88;3.70;;;10.00;99.90;;;;;;5012610;28;20026;-44
2023/12/02 04:33:57;;;;;;;5.22;3.50;;;10.10;99.90;;;;;;5011976;28;20398;-44
2023/12/02 04:36:24;;;;;;;4.22;3.58;;;10.10;99.90;;;;;;5012479;28;20025;-45
2023/12/02 04:38:50;;;;;;;4.25;3.63;;;10.00;99.90;;;;;;5013157;28;20093;-45
2023/12/02 04:41:16;;;;;;;4.63;3.65;;;10.10;99.90;;;;;;5012695;28;20420;-44
2023/12/02 04:43:41;;;;;;;4.88;4.13;;;10.00;99.90;;;;;;5012463;28;20025;-44
2023/12/02 04:46:07;;;;;;;4.40;3.63;;;10.00;99.90;;;;;;5012214;28;20052;-45
2023/12/02 04:48:33;;;;;;;4.50;3.80;;;10.00;99.90;;;;;;5012299;28;20033;-45
2023/12/02 04:50:59;;;;;;;4.20;3.33;;;10.00;99.90;;;;;;5012207;28;20083;-45
2023/12/02 04:53:25;;;;;;;4.13;3.38;;;10.00;99.90;;;;;;5012570;28;20101;-44
2023/12/02 04:55:53;;;;;;;4.38;3.53;;;10.00;99.90;;;;;;5012230;28;20497;-44
2023/12/02 04:58:20;;;;;;;4.07;3.40;;;10.00;99.90;;;;;;5012158;28;20034;-44
2023/12/02 05:00:46;;;;;;;4.93;3.55;;;10.00;99.90;;;;;;5012044;28;20511;-44
2023/12/02 05:03:16;;;;;;;4.90;4.10;;;10.00;99.90;;;;;;5013062;28;20034;-45
2023/12/02 05:05:43;;;;;;;4.13;3.38;;;10.00;99.90;;;;;;5013091;28;20030;-44
2023/12/02 05:08:08;;;;;;;3.80;3.28;;;10.00;99.90;;;;;;5012739;28;20076;-44
2023/12/02 05:10:35;;;;;;;5.35;3.92;;;10.00;99.90;;;;;;5012025;28;20022;-45
2023/12/02 05:13:01;;;;;;;4.00;3.60;;;10.00;99.90;;;;;;5012012;28;20534;-44
2023/12/02 05:15:26;;;;;;;4.97;3.78;;;10.00;99.90;;;;;;5013240;28;20034;-43
2023/12/02 05:17:52;;;;;;;4.35;3.60;;;10.00;99.90;;;;;;5012030;28;20057;-45
2023/12/02 05:20:19;;;;;;;4.05;3.42;;;10.00;99.90;;;;;;5012350;28;20404;-45
2023/12/02 05:22:44;;;;;;;5.25;3.65;;;10.00;99.90;;;;;;5012284;28;20037;-45
2023/12/02 05:25:10;;;;;;;4.60;3.70;;;10.00;99.90;;;;;;5011703;28;20033;-44
2023/12/02 05:27:36;;;;;;;4.15;3.22;;;10.00;99.90;;;;;;5011575;28;20018;-45
2023/12/02 05:30:04;;;;;;;4.53;3.33;;;10.00;99.90;;;;;;5011683;28;20543;-44
2023/12/02 05:32:29;;;;;;;3.95;3.10;;;10.00;99.90;;;;;;5011731;28;20499;-44
2023/12/02 05:34:55;;;;;;;4.15;3.28;;;10.00;99.90;;;;;;5011867;28;20041;-44
2023/12/02 05:37:20;;;;;;;4.38;3.55;;;10.00;99.90;;;;;;5011986;28;20071;-42
2023/12/02 05:39:46;;;;;;;4.68;3.60;;;10.00;99.90;;;;;;5011857;28;20496;-44
2023/12/02 05:42:12;;;;;;;4.25;3.50;;;10.00;99.90;;;;;;5011910;28;20364;-44
2023/12/02 05:44:40;;;;;;;3.78;3.20;;;10.00;99.90;;;;;;5012011;28;20033;-44
2023/12/02 05:47:06;;;;;;;3.78;3.28;;;10.00;99.90;;;;;;5011463;28;20052;-44
2023/12/02 05:49:32;;;;;;;4.28;3.08;;;10.00;99.90;;;;;;5011849;28;20061;-45
2023/12/02 05:51:58;;;;;;;3.72;3.10;;;10.00;99.90;;;;;;5012162;28;20072;-44
2023/12/02 05:54:24;;;;;;;4.15;3.30;;;10.00;99.90;;;;;;5011402;28;20472;-44
2023/12/02 05:56:52;;;;;;;4.13;3.33;;;9.90;99.90;;;;;;5011381;28;20022;-45
2023/12/02 05:59:19;;;;;;;4.53;3.60;;;9.90;99.90;;;;;;5011514;28;20030;-44
2023/12/02 06:01:45;;;;;;;4.97;3.50;;;9.90;99.90;;;;;;5012615;28;20022;-44
2023/12/02 06:04:12;;;;;;;3.88;3.15;;;9.90;99.90;;;;;;5011298;28;20077;-43
2023/12/02 06:06:38;;;;;;;5.07;3.90;;;9.90;99.90;;;;;;5012292;28;20026;-44
2023/12/02 06:09:04;;;;;;;4.20;3.40;;;10.00;99.90;;;;;;5011505;28;20439;-44
2023/12/02 06:11:30;;;;;;;3.40;2.97;;;9.90;99.90;;;;;;5011534;28;20037;-44
2023/12/02 06:13:56;;;;;;;4.63;3.70;;;9.90;99.90;;;;;;5011324;28;20022;-43
2023/12/02 06:16:22;;;;;;;3.80;3.05;;;9.90;99.90;;;;;;5011236;28;20030;-45
2023/12/02 06:18:48;;;;;;;4.45;3.33;;;9.90;99.90;;;;;;5011381;28;20061;-44
2023/12/02 06:21:13;;;;;;;4.18;3.30;;;9.90;99.90;;;;;;5011206;28;20014;-45
2023/12/02 06:23:39;;;;;;;4.25;3.20;;;9.90;99.90;;;;;;5011120;28;20368;-44
2023/12/02 06:26:05;;;;;;;4.78;3.42;;;9.90;99.90;;;;;;5011234;28;20030;-44
2023/12/02 06:28:31;;;;;;;4.00;3.35;;;9.90;99.90;;;;;;5011129;28;20096;-44
2023/12/02 06:30:57;;;;;;;3.75;3.35;;;9.90;99.90;;;;;;5012522;28;20026;-44
2023/12/02 06:33:23;;;;;;;4.55;3.55;;;9.90;99.90;;;;;;5011699;28;20033;-44
2023/12/02 06:35:48;;;;;;;3.63;3.13;;;9.90;99.90;;;;;;5011970;28;20033;-44
2023/12/02 06:38:14;;;;;;;4.40;3.35;;;9.90;99.90;;;;;;5011831;28;20026;-42
2023/12/02 06:40:40;;;;;;;4.28;3.40;;;9.90;99.90;;;;;;5011152;28;20141;-42
2023/12/02 06:43:06;;;;;;;3.63;3.10;;;9.90;99.90;;;;;;5011103;28;20092;-44
2023/12/02 06:45:34;;;;;;;4.30;3.50;;;9.90;99.90;;;;;;5011790;28;20373;-44
2023/12/02 06:47:59;;;;;;;4.78;3.60;;;9.90;99.90;;;;;;5010932;28;20018;-45
2023/12/02 06:50:25;;;;;;;4.28;3.42;;;9.90;99.90;;;;;;5011201;28;20045;-45
2023/12/02 06:52:51;;;;;;;4.47;3.50;;;9.90;99.90;;;;;;5010896;28;20028;-45
2023/12/02 06:55:17;;;;;;;5.28;3.67;;;9.90;99.90;;;;;;5012061;28;20026;-42
2023/12/02 06:57:42;;;;;;;3.78;3.22;;;9.90;99.90;;;;;;5012246;28;20034;-43
2023/12/02 07:00:10;;;;;;;4.70;3.83;;;9.90;99.90;;;;;;5012401;28;20037;-42
2023/12/02 07:02:35;;;;;;;4.57;3.30;;;9.90;99.90;;;;;;5014422;28;20057;-41
2023/12/02 07:05:02;;;;;;;4.18;3.47;;;9.90;99.90;;;;;;5014531;28;20616;-44
2023/12/02 07:07:27;;;;;;;4.28;3.30;;;9.90;99.90;;;;;;5014090;28;20503;-44
2023/12/02 07:09:53;;;;;;;3.60;3.10;;;9.90;99.90;;;;;;5014927;28;20029;-45
2023/12/02 07:12:19;;;;;;;3.88;3.13;;;9.90;99.90;;;;;;5015607;28;20104;-44
2023/12/02 07:14:44;;;;;;;4.53;3.28;;;9.90;99.90;;;;;;5014855;28;20030;-44
2023/12/02 07:17:10;;;;;;;3.75;3.30;;;9.90;99.90;;;;;;5014036;28;20037;-43
2023/12/02 07:19:35;;;;;;;4.95;3.38;;;9.90;99.90;;;;;;5014544;28;20057;-44
2023/12/02 07:22:02;;;;;;;4.28;3.33;;;9.90;99.90;;;;;;5014074;28;20511;-41
2023/12/02 07:24:27;;;;;;;4.00;3.53;;;9.90;99.90;;;;;;5014345;28;20057;-44
2023/12/02 07:26:53;;;;;;;3.92;3.20;;;9.90;99.90;;;;;;5015009;28;20026;-44
2023/12/02 07:29:18;;;;;;;4.13;3.20;;;9.90;99.90;;;;;;5014460;28;20045;-45
2023/12/02 07:31:45;;;;;;;4.10;3.40;;;9.90;99.90;;;;;;5014177;28;20033;-44
2023/12/02 07:34:11;;;;;;;4.28;3.30;;;9.90;99.90;;;;;;5013732;28;20481;-43
2023/12/02 07:36:36;;;;;;;4.70;3.42;;;9.90;99.90;;;;;;5013596;28;20037;-44
2023/12/02 07:39:02;;;;;;;3.90;3.20;;;10.00;99.90;;;;;;5013574;28;20037;-44
2023/12/02 07:41:28;;;;;;;4.72;3.38;;;10.00;99.90;;;;;;5013674;28;20037;-45
2023/12/02 07:43:53;;;;;;;4.07;3.40;;;10.00;99.90;;;;;;5014288;28;20033;-44
2023/12/02 07:46:19;;;;;;;3.80;3.00;;;10.10;99.90;;;;;;5014314;28;20057;-45
2023/12/02 07:48:45;;;;;;;3.88;3.10;;;10.10;99.90;;;;;;5013606;28;20061;-44
2023/12/02 07:51:10;;;;;;;4.32;3.17;;;10.10;99.90;;;;;;5013236;28;20045;-45
2023/12/02 07:53:36;;;;;;;3.70;2.83;;;10.10;99.90;;;;;;5013606;28;20468;-45
2023/12/02 07:56:01;;;;;;;3.55;2.78;;;10.20;99.90;;;;;;5014281;28;20450;-44
2023/12/02 07:58:27;;;;;;;4.07;3.20;;;10.20;99.80;;;;;;5013695;28;20029;-44
2023/12/02 08:00:53;;;;;;;3.15;2.55;;;10.20;99.70;;;;;;5014051;28;20022;-45
2023/12/02 08:03:18;;;;;;;3.40;2.78;;;10.30;99.70;;;;;;5012379;28;20061;-43
2023/12/02 08:05:44;;;;;;;3.42;3.03;;;10.30;99.60;;;;;;4995230;28;20049;-43
2023/12/02 08:08:09;;;;;;;3.80;2.75;;;10.30;99.60;;;;;;5022706;28;20175;-44
2023/12/02 08:10:35;;;;;;;3.13;2.67;;;10.40;99.50;;;;;;5012898;28;20032;-44
2023/12/02 08:13:01;;;;;;;3.10;2.80;;;10.40;99.50;;;;;;5013760;28;20538;-45
2023/12/02 08:15:26;;;;;;;2.72;2.38;;;10.40;99.40;;;;;;5013237;28;20376;-44
2023/12/02 08:17:52;;;;;;;3.80;3.10;;;10.40;99.40;;;;;;5013428;28;20101;-44
2023/12/02 08:20:18;;;;;;;3.42;2.90;;;10.50;99.40;;;;;;5012769;28;20152;-45
2023/12/02 08:22:44;;;;;;;4.18;2.92;;;10.50;99.30;;;;;;5013197;28;20040;-45
2023/12/02 08:25:09;;;;;;;3.58;2.95;;;10.50;99.20;;;;;;5012732;28;20026;-42
2023/12/02 08:27:35;;;;;;;3.30;2.60;;;10.50;99.20;;;;;;5012716;28;20033;-43
2023/12/02 08:30:01;;;;;;;3.17;2.50;;;10.50;99.20;;;;;;5012770;28;20101;-44
2023/12/02 08:32:27;;;;;;;3.50;2.72;;;10.60;99.20;;;;;;5012873;28;20025;-44
2023/12/02 08:34:52;;;;;;;3.47;2.70;;;10.60;99.10;;;;;;5011207;28;20179;-44
2023/12/02 08:37:18;;;;;;;3.60;2.70;;;10.60;99.10;;;;;;5012232;28;20037;-44
2023/12/02 08:39:44;;;;;;;2.90;2.50;;;10.60;99.10;;;;;;5013356;28;20050;-45
2023/12/02 08:42:09;;;;;;;2.60;2.40;;;10.60;99.00;;;;;;5013185;28;20022;-44
2023/12/02 08:44:37;;;;;;;3.47;2.90;;;10.60;99.00;;;;;;5012422;28;20530;-44
2023/12/02 08:47:03;;;;;;;3.78;2.75;;;10.70;99.00;;;;;;5012392;28;20032;-44
2023/12/02 08:49:29;;;;;;;3.42;2.95;;;10.70;99.00;;;;;;5012950;28;20400;-41
2023/12/02 08:51:55;;;;;;;3.03;2.72;;;10.70;98.90;;;;;;5012932;28;20030;-44
2023/12/02 08:54:21;;;;;;;3.63;2.83;;;10.70;98.90;;;;;;5012544;28;20021;-45
2023/12/02 08:56:47;;;;;;;3.20;2.47;;;10.70;98.90;;;;;;5012578;28;20072;-45
2023/12/02 08:59:12;;;;;;;2.70;2.40;;;10.70;98.80;;;;;;5012135;28;20037;-44
2023/12/02 09:01:38;;;;;;;3.55;2.88;;;10.80;98.80;;;;;;5012954;28;20064;-44
2023/12/02 09:04:04;;;;;;;3.30;2.75;;;10.70;98.80;;;;;;5012228;28;20058;-43
2023/12/02 09:06:30;;;;;;;3.45;2.90;;;10.80;98.70;;;;;;5013207;28;20021;-44
2023/12/02 09:08:57;;;;;;;3.25;2.75;;;10.80;98.70;;;;;;5012497;28;20400;-45
2023/12/02 09:11:23;;;;;;;3.00;2.55;;;10.80;98.70;;;;;;5012133;28;20022;-44
2023/12/02 09:13:49;;;;;;;3.00;2.70;;;10.80;98.70;;;;;;5012127;28;20548;-44
2023/12/02 09:16:28;;;;;;;3.47;2.75;;;10.80;98.70;;;;;;5012132;28;20022;-45
2023/12/02 09:18:54;;;;;;;3.35;2.65;;;10.80;98.60;;;;;;5012022;28;20498;-45
2023/12/02 09:21:41;;;;;;;3.30;2.78;;;10.80;98.60;;;;;;5011774;28;20480;-43
2023/12/02 09:24:36;;;;;;;3.90;3.00;;;10.80;98.60;;;;;;5012187;28;20024;-45
2023/12/02 09:27:07;;;;;;;3.65;3.00;;;10.80;98.60;;;;;;5011840;28;20026;-44
2023/12/02 09:29:36;;;;;;;3.30;2.90;;;10.90;98.60;;;;;;5011691;28;20534;-43
2023/12/02 09:32:24;;;;;;;3.22;2.83;;;10.80;98.50;;;;;;5012946;28;20049;-44
2023/12/02 09:34:59;;;;;;;4.25;2.90;;;10.90;98.60;;;;;;5011973;28;20490;-43
2023/12/02 09:37:46;;;;;;;3.33;2.53;;;10.90;98.50;;;;;;5012317;28;20033;-44
2023/12/02 09:40:21;;;;;;;2.92;2.60;;;10.90;98.50;;;;;;5012037;28;20499;-44
2023/12/02 09:42:54;;;;;;;3.50;3.10;;;10.90;98.50;;;;;;5011667;28;20033;-44
2023/12/02 09:45:22;;;;;;;4.43;3.23;;;10.90;98.40;;;;;;5011442;28;20026;-45
2023/12/02 09:48:06;;;;;;;3.67;3.03;;;10.90;98.40;;;;;;5012827;28;20034;-44
2023/12/02 09:50:52;;;;;;;3.85;3.05;;;10.90;98.40;;;;;;5011706;28;20032;-44
2023/12/02 09:53:46;;;;;;;4.45;3.10;;;10.90;98.40;;;;;;5011495;28;20021;-45
2023/12/02 09:56:20;;;;;;;4.85;3.60;;;10.90;98.40;;;;;;5011347;28;20037;-44
2023/12/02 09:58:47;;;;;;;3.60;2.70;;;10.90;98.40;;;;;;5011543;28;20026;-44
2023/12/02 10:01:33;;;;;;;3.42;2.80;;;10.90;98.30;;;;;;5011668;28;20028;-44
2023/12/02 10:04:06;;;;;;;3.83;3.05;;;11.00;98.40;;;;;;5012645;28;20423;-44
2023/12/02 10:06:47;;;;;;;4.07;3.30;;;11.00;98.30;;;;;;5012522;28;20026;-44
2023/12/02 10:09:36;;;;;;;3.22;2.88;;;10.90;98.30;;;;;;5011268;28;20080;-45
2023/12/02 10:12:32;;;;;;;4.40;3.20;;;11.00;98.30;;;;;;5011633;28;20109;-45
2023/12/02 10:15:07;;;;;;;4.53;3.17;;;11.00;98.30;;;;;;5011343;28;20029;-43
2023/12/02 10:17:41;;;;;;;3.90;3.00;;;11.00;98.30;;;;;;5010035;28;20061;-45
2023/12/02 10:20:12;;;;;;;3.05;2.70;;;11.00;98.30;;;;;;5011432;28;20022;-44
2023/12/02 10:22:54;;;;;;;3.60;2.95;;;11.00;98.20;;;;;;5012042;28;20084;-44
2023/12/02 10:25:19;;;;;;;5.18;3.00;;;11.00;98.20;;;;;;5010995;28;20498;-44
2023/12/02 10:27:45;;;;;;;4.97;3.72;;;11.00;98.20;;;;;;5011525;28;20026;-45
2023/12/02 10:30:15;;;;;;;9.45;5.30;;;11.10;98.00;;;;;;5011399;28;20492;-44
2023/12/02 10:33:17;;;;;;;7.25;5.15;;;11.00;95.90;;;;;;5011786;28;20490;-44
2023/12/02 10:35:45;;;;;;;6.75;4.93;;;10.90;95.30;;;;;;5016099;28;20026;-41
2023/12/02 10:38:28;;;;;;;6.15;4.70;;;10.90;95.40;;;;;;5015840;28;20049;-45
2023/12/02 10:41:27;;;;;;;5.60;4.55;;;10.80;95.50;;;;;;5015724;28;20104;-43
2023/12/02 10:43:56;;;;;;;6.18;4.63;;;10.80;95.80;;;;;;5014854;28;20033;-44
2023/12/02 10:46:23;;;;;;;6.47;4.65;;;10.80;95.90;;;;;;5014535;28;20034;-45
2023/12/02 10:48:49;;;;;;;6.07;4.63;;;10.80;96.40;;;;;;5014550;28;20026;-44
2023/12/02 10:51:16;;;;;;;6.93;5.05;;;10.80;96.20;;;;;;5014617;28;20385;-40
2023/12/02 10:53:43;;;;;;;5.13;4.13;;;10.80;96.30;;;;;;5015693;28;20070;-44
2023/12/02 10:56:20;;;;;;;7.22;5.00;;;10.80;96.40;;;;;;5015653;28;20037;-40
2023/12/02 10:58:48;;;;;;;6.30;4.63;;;10.80;96.40;;;;;;5015491;28;20416;-42
2023/12/02 11:01:28;;;;;;;5.47;4.28;;;10.80;96.50;;;;;;5014506;28;20026;-44
2023/12/02 11:04:25;;;;;;;5.93;4.38;;;10.90;96.60;;;;;;5015469;28;20435;-44
2023/12/02 11:07:00;;;;;;;6.30;4.20;;;10.90;97.00;;;;;;5019245;28;20275;-44
2023/12/02 11:09:51;;;;;;;6.10;4.38;;;10.90;96.70;;;;;;5015459;28;20029;-43
2023/12/02 11:12:23;;;;;;;5.35;4.53;;;10.90;96.70;;;;;;5015079;28;20072;-44
2023/12/02 11:14:52;;;;;;;5.82;4.50;;;10.90;96.80;;;;;;5015360;28;20033;-42
2023/12/02 11:17:42;;;;;;;4.57;3.92;;;10.90;96.80;;;;;;5013880;28;20495;-42
2023/12/02 11:20:27;;;;;;;7.25;4.45;;;10.90;96.80;;;;;;5014926;28;20120;-44
2023/12/02 11:23:09;;;;;;;5.32;4.35;;;10.90;96.80;;;;;;5014389;28;20120;-44
2023/12/02 11:26:12;;;;;;;4.88;4.10;;;10.90;96.80;;;;;;5014038;28;20025;-44
2023/12/02 11:29:01;;;;;;;5.07;4.38;;;10.90;96.80;;;;;;5014397;28;20029;-43
2023/12/02 11:31:56;;;;;;;7.00;4.40;;;10.90;96.80;;;;;;5022344;28;20034;-44
2023/12/02 11:34:27;;;;;;;;;;;10.90;96.80;;;;;;5014300;28;20034;-41
2023/12/02 11:36:56;;;;;;;7.00;4.30;;;10.90;96.80;;;;;;5013753;28;19909;-39
2023/12/02 11:39:43;;;;;;;5.43;4.28;;;10.90;96.80;;;;;;5013503;28;20495;-39
2023/12/02 11:42:17;;;;;;;4.82;3.97;;;11.00;96.90;;;;;;5013764;28;20080;-42
2023/12/02 11:45:01;;;;;;;5.90;4.53;;;11.00;96.90;;;;;;5013406;28;20036;-43
2023/12/02 11:47:54;;;;;;;5.97;4.32;;;11.00;96.80;;;;;;5013539;28;20018;-40
2023/12/02 11:50:42;;;;;;;6.32;4.30;;;11.00;96.90;;;;;;5012339;28;20026;-42
2023/12/02 11:53:22;;;;;;;5.43;4.18;;;11.00;96.80;;;;;;5013495;28;20022;-43
2023/12/02 11:55:56;;;;;;;5.25;4.38;;;11.00;96.80;;;;;;5013413;28;20084;-43
2023/12/02 11:58:51;;;;;;;5.80;4.10;;;11.00;96.80;;;;;;5013331;28;20030;-42
2023/12/02 12:01:20;;;;;;;;;;;11.00;96.80;;;;;;5013808;28;20037;-42
2023/12/02 12:04:12;;;;;;;5.47;4.20;;;11.00;96.80;;;;;;5013403;28;19905;-44
2023/12/02 12:07:07;;;;;;;4.68;3.55;;;11.00;96.90;;;;;;5013196;28;20030;-41
2023/12/02 12:09:45;;;;;;;5.90;4.10;;;11.00;96.80;;;;;;5013102;28;20072;-41
2023/12/02 12:12:11;;;;;;;5.72;4.20;;;11.00;96.80;;;;;;5013178;28;20029;-42
2023/12/02 12:14:39;;;;;;;5.47;3.72;;;11.00;96.80;;;;;;5013154;28;20026;-44
2023/12/02 12:17:05;;;;;;;5.13;3.70;;;11.00;96.80;;;;;;5012904;28;20033;-42
2023/12/02 12:19:30;;;;;;;4.55;3.75;;;11.00;96.80;;;;;;5012820;28;20104;-41
2023/12/02 12:21:56;;;;;;;4.53;3.80;;;11.00;96.80;;;;;;5012819;28;20492;-43
2023/12/02 12:24:22;;;;;;;4.63;3.80;;;11.00;96.70;;;;;;5013157;28;20033;-40
2023/12/02 12:26:48;;;;;;;4.35;3.60;;;11.00;96.70;;;;;;5012654;28;20018;-44
2023/12/02 12:29:15;;;;;;;4.82;3.15;;;11.00;96.70;;;;;;5012582;28;20026;-44
2023/12/02 12:31:42;;;;;;;3.90;3.22;;;11.00;96.70;;;;;;5013279;28;20014;-42
2023/12/02 12:34:12;;;;;;;4.72;3.40;;;11.00;96.70;;;;;;5013086;28;20113;-44
2023/12/02 12:36:40;;;;;;;4.03;3.28;;;11.00;96.70;;;;;;5012595;28;20064;-44
2023/12/02 12:39:07;;;;;;;4.97;3.35;;;11.00;96.70;;;;;;5012453;28;20076;-44
2023/12/02 12:41:36;;;;;;;4.18;3.40;;;11.00;96.70;;;;;;5013139;28;20068;-44
2023/12/02 12:44:03;;;;;;;4.32;3.67;;;11.00;96.70;;;;;;5012556;28;20057;-44
2023/12/02 12:46:30;;;;;;;5.20;3.40;;;11.00;96.70;;;;;;5012801;28;20057;-45
2023/12/02 12:48:56;;;;;;;4.20;3.40;;;11.00;96.70;;;;;;5013141;28;20031;-44
2023/12/02 12:51:23;;;;;;;5.13;3.67;;;11.00;96.70;;;;;;5012572;28;20029;-44
2023/12/02 12:53:59;;;;;;;4.43;3.40;;;11.00;96.70;;;;;;5013103;28;20022;-44
2023/12/02 12:56:39;;;;;;;4.10;3.33;;;11.00;96.70;;;;;;5012297;28;20060;-44